Nederlandse vliegveldverwachtingen (TAF)

Luchtvaartmeteorologische informatie voor operationeel gebruik en vluchtvoorbereiding is beschikbaar op www.luchtvaartmeteo.nl.

ZCZC
FC182100 EHGR     GILZE-RIJEN/GILZE-RIJEN   NLD   14 m.
TAF EHGR 182100Z NIL=

ZCZC
FC182100 EHKD     DE KOOY/DE KOOY   NLD   1 m.
TAF EHKD 182100Z NIL=

ZCZC
FC182100 EHLW     LEEUWARDEN/LEEUWARDEN   NLD   1 m.
TAF EHLW 182024Z 1821/1909 06010KT CAVOK=

ZCZC
FC182100 EHVK     VOLKEL/VOLKEL   NLD   21 m.
TAF EHVK 182024Z 1821/1909 06009KT CAVOK=

ZCZC
FC182100 EHWO     WOENSDRECHT/WOENSDRECHT   NLD   19 m.
TAF EHWO 182100Z NIL=

ZCZC
FT182300 EHAM     AMSTERDAM/SCHIPHOL   NLD   -3 m.
TAF EHAM 182311Z 1900/2006 06009KT CAVOK=

ZCZC
FT182300 EHBK     MAASTRICHT/MAASTRICHT-AACHEN   NLD   114 m.
TAF EHBK 182307Z 1900/2006 08008KT CAVOK=

ZCZC
FT182300 EHGG     GRONINGEN/EELDE   NLD   5 m.
TAF EHGG 182307Z 1900/2006 07010KT CAVOK
    BECMG 1908/1911 10012KT
    BECMG 1917/1919 06007KT=

ZCZC
FT182300 EHRD     ROTTERDAM/THE HAGUE AIRPORT   NLD   -5 m.
TAF EHRD 182314Z 1900/2006 06009KT CAVOK=

ZCZC
FT182300 EHEH     EINDHOVEN/EINDHOVEN   NLD   22 m.
TAF EHEH 182339Z 1900/2006 07006KT CAVOK
    TEMPO 1910/1915 07007G17KT=

19/04/2019 02.15 uur LT